Upham, ND (58789)

5:18 AM CST on February 01, 2015 (GMT -0600)
RAWS J. CLARK SALYER ND US | Change Station
CLOSE
Current Station
Personal Weather Station
Location: Upham, ND
Elevation: 1439 ft
Nearby Weather Stations
Active Advisory: Wind Chill Advisory

Elev 1439 ft 48.62 °N, 100.73 °W | Updated 32 minutes ago

Clear
Clear
-10 °F
Feels Like -22 °F
N
5
Wind Variable Wind from NW
Gusts 9.0 mph

Today
High -- | Low -- °F
--% Chance of Precip.
Yesterday
High -- | Low -- °F
Precip. -- in
8:12 AM 5:41 PM
Waxing Gibbous, 94% visible
Pressure 30.69 in
Visibility 10.0 miles
Clouds Clear
Windchill -22 °F
Dew Point -21 °F
Humidity 57%
Rainfall 0.00 in
Snow Depth Not available.
UV 0 out of 12
Pollen .10 out of 12
Air Quality Not available.
Flu Activity Not available.
METAR KMIB 011058Z AUTO 36005KT 10SM CLR M22/M27 A3051 RMK AO2 SLP390 T12221268 $

More Conditions Fewer Conditions

Pressure 30.69 in
Visibility 10.0 miles
Clouds Clear
Windchill -22 °F
Dew Point -21 °F
Humidity 57%
Rainfall 0.00 in
Snow Depth Not available.
UV 0 out of 12
Pollen .10 out of 12
Air Quality Not available.
Flu Activity Not available.
METAR KMIB 011058Z AUTO 36005KT 10SM CLR M22/M27 A3051 RMK AO2 SLP390 T12221268 $

More Conditions Fewer Conditions

10-Day Weather Forecast

Almanac

Astronomy

Feb. 01, 2015 Rise Set
Actual Time
Civil Twilight
Nautical Twilight
Astronomical Twilight
Moon
Length of Visible Light
Length of Day
Tomorrow will be .
, % of the Moon is Illuminated

Today's Extremes

State Highs State Lows

Community

WunderPhotos

Upload Photos

1,792,345 photos uploaded!

WunderBlogs® & News

Nearby

Air Quality

  Air Quality AQ Index Pollutant
Not available.

Snow Depth

Station Depth Elevation

Earthquake Activity

City Distance Mag. Time & Date
Minimum magnitude displayed is 2.5.

Coastal Water Temperatures

Place Temperature

Nearby Weather Stations